Time,TemperatureF,DewpointF,PressureIn,WindDirection,WindDirectionDegrees,WindSpeedMPH,WindSpeedGustMPH,Humidity,HourlyPrecipIn,Conditions,Clouds,dailyrainin,SoftwareType,DateUTC
2013-01-20 00:02:00,52.0,7.0,-100.00,NNE,23,5.0,9.0,16,-99.99,,,-99.99,,2013-01-20 08:02:00,
2013-01-20 00:12:00,51.0,6.0,-100.00,North,8,4.0,8.0,16,-99.99,,,-99.99,,2013-01-20 08:12:00,
2013-01-20 00:22:00,52.0,6.0,-100.00,NNE,13,6.0,10.0,15,-99.99,,,-99.99,,2013-01-20 08:22:00,
2013-01-20 00:32:00,52.0,6.0,-100.00,NNE,18,7.0,12.0,15,-99.99,,,-99.99,,2013-01-20 08:32:00,
2013-01-20 00:42:00,52.0,6.0,-100.00,North,4,5.0,9.0,15,-99.99,,,-99.99,,2013-01-20 08:42:00,
2013-01-20 00:52:00,52.0,6.0,-100.00,North,5,6.0,10.0,15,-99.99,,,-99.99,,2013-01-20 08:52:00,
2013-01-20 01:02:00,51.0,6.0,-100.00,North,360,6.0,9.0,16,-99.99,,,-99.99,,2013-01-20 09:02:00,
2013-01-20 01:12:00,51.0,6.0,-100.00,North,359,6.0,9.0,16,-99.99,,,-99.99,,2013-01-20 09:12:00,
2013-01-20 01:22:00,52.0,6.0,-100.00,North,5,6.0,10.0,15,-99.99,,,-99.99,,2013-01-20 09:22:00,
2013-01-20 01:33:00,51.0,6.0,-100.00,North,351,6.0,10.0,16,-99.99,,,-99.99,,2013-01-20 09:33:00,
2013-01-20 01:42:00,50.0,7.0,-100.00,NNW,343,6.0,10.0,17,-99.99,,,-99.99,,2013-01-20 09:42:00,
2013-01-20 01:52:00,52.0,6.0,-100.00,North,11,5.0,9.0,15,-99.99,,,-99.99,,2013-01-20 09:52:00,
2013-01-20 02:02:00,52.0,6.0,-100.00,North,11,5.0,9.0,15,-99.99,,,-99.99,,2013-01-20 10:02:00,
2013-01-20 02:11:00,52.0,6.0,-100.00,North,3,4.0,7.0,15,-99.99,,,-99.99,,2013-01-20 10:11:00,
2013-01-20 02:22:00,52.0,6.0,-100.00,NNE,14,4.0,8.0,15,-99.99,,,-99.99,,2013-01-20 10:22:00,
2013-01-20 02:32:00,52.0,6.0,-100.00,North,7,3.0,6.0,15,-99.99,,,-99.99,,2013-01-20 10:32:00,
2013-01-20 02:42:00,52.0,6.0,-100.00,North,2,4.0,7.0,15,-99.99,,,-99.99,,2013-01-20 10:42:00,
2013-01-20 02:52:00,52.0,6.0,-100.00,North,358,5.0,8.0,15,-99.99,,,-99.99,,2013-01-20 10:52:00,
2013-01-20 03:02:00,52.0,6.0,-100.00,North,0,5.0,8.0,15,-99.99,,,-99.99,,2013-01-20 11:02:00,
2013-01-20 03:12:00,52.0,6.0,-100.00,North,5,3.0,6.0,15,-99.99,,,-99.99,,2013-01-20 11:12:00,
2013-01-20 03:22:00,53.0,7.0,-100.00,North,353,4.0,6.0,15,-99.99,,,-99.99,,2013-01-20 11:22:00,
2013-01-20 03:32:00,52.0,6.0,-100.00,North,355,4.0,6.0,15,-99.99,,,-99.99,,2013-01-20 11:32:00,
2013-01-20 03:42:00,52.0,6.0,-100.00,North,355,4.0,6.0,15,-99.99,,,-99.99,,2013-01-20 11:42:00,
2013-01-20 03:53:00,52.0,6.0,-100.00,North,358,4.0,6.0,15,-99.99,,,-99.99,,2013-01-20 11:53:00,
2013-01-20 04:02:00,52.0,7.0,-100.00,NNW,345,5.0,7.0,16,-99.99,,,-99.99,,2013-01-20 12:02:00,
2013-01-20 04:12:00,50.0,7.0,-100.00,NNW,344,6.0,8.0,17,-99.99,,,-99.99,,2013-01-20 12:12:00,
2013-01-20 04:22:00,51.0,8.0,-100.00,North,350,6.0,10.0,17,-99.99,,,-99.99,,2013-01-20 12:22:00,
2013-01-20 04:33:00,50.0,7.0,-100.00,North,351,6.0,9.0,17,-99.99,,,-99.99,,2013-01-20 12:33:00,
2013-01-20 04:42:00,50.0,8.0,-100.00,North,352,6.0,10.0,18,-99.99,,,-99.99,,2013-01-20 12:42:00,
2013-01-20 04:52:00,50.0,8.0,-100.00,North,349,6.0,10.0,18,-99.99,,,-99.99,,2013-01-20 12:52:00,
2013-01-20 05:02:00,50.0,7.0,-100.00,North,358,6.0,10.0,17,-99.99,,,-99.99,,2013-01-20 13:02:00,
2013-01-20 05:12:00,50.0,7.0,-100.00,North,7,6.0,11.0,17,-99.99,,,-99.99,,2013-01-20 13:12:00,
2013-01-20 05:22:00,50.0,7.0,-100.00,NNE,14,6.0,11.0,17,-99.99,,,-99.99,,2013-01-20 13:22:00,
2013-01-20 05:32:00,50.0,7.0,-100.00,NNE,15,6.0,12.0,17,-99.99,,,-99.99,,2013-01-20 13:32:00,
2013-01-20 05:42:00,50.0,7.0,-100.00,NNE,15,6.0,12.0,17,-99.99,,,-99.99,,2013-01-20 13:42:00,
2013-01-20 05:52:00,50.0,7.0,-100.00,NNE,21,6.0,12.0,17,-99.99,,,-99.99,,2013-01-20 13:52:00,
2013-01-20 06:02:00,50.0,7.0,-100.00,NNE,17,6.0,10.0,17,-99.99,,,-99.99,,2013-01-20 14:02:00,
2013-01-20 06:12:00,50.0,7.0,-100.00,NNE,27,7.0,13.0,17,-99.99,,,-99.99,,2013-01-20 14:12:00,
2013-01-20 06:22:00,50.0,7.0,-100.00,NNE,21,7.0,15.0,17,-99.99,,,-99.99,,2013-01-20 14:22:00,
2013-01-20 06:32:00,50.0,7.0,-100.00,NNE,27,7.0,12.0,17,-99.99,,,-99.99,,2013-01-20 14:32:00,
2013-01-20 06:42:00,50.0,7.0,-100.00,NNE,26,7.0,13.0,17,-99.99,,,-99.99,,2013-01-20 14:42:00,
2013-01-20 06:52:00,49.0,6.0,-100.00,NNE,23,6.0,14.0,17,-99.99,,,-99.99,,2013-01-20 14:52:00,
2013-01-20 07:02:00,50.0,7.0,-100.00,NNE,21,6.0,12.0,17,-99.99,,,-99.99,,2013-01-20 15:02:00,
2013-01-20 07:12:00,50.0,7.0,-100.00,NNE,20,6.0,12.0,17,-99.99,,,-99.99,,2013-01-20 15:12:00,
2013-01-20 07:22:00,50.0,6.0,-100.00,NNE,14,6.0,11.0,16,-99.99,,,-99.99,,2013-01-20 15:22:00,
2013-01-20 07:32:00,50.0,6.0,-100.00,NNE,25,6.0,10.0,16,-99.99,,,-99.99,,2013-01-20 15:32:00,
2013-01-20 07:42:00,51.0,5.0,-100.00,NNE,30,7.0,16.0,15,-99.99,,,-99.99,,2013-01-20 15:42:00,
2013-01-20 07:52:00,51.0,5.0,-100.00,NNE,27,7.0,13.0,15,-99.99,,,-99.99,,2013-01-20 15:52:00,
2013-01-20 08:02:00,51.0,5.0,-100.00,NE,34,6.0,10.0,15,-99.99,,,-99.99,,2013-01-20 16:02:00,
2013-01-20 08:12:00,52.0,6.0,-100.00,NE,37,6.0,10.0,15,-99.99,,,-99.99,,2013-01-20 16:12:00,
2013-01-20 08:22:00,52.0,6.0,-100.00,NE,49,5.0,8.0,15,-99.99,,,-99.99,,2013-01-20 16:22:00,
2013-01-20 08:32:00,53.0,7.0,-100.00,NE,48,6.0,10.0,15,-99.99,,,-99.99,,2013-01-20 16:32:00,
2013-01-20 08:42:00,54.0,9.0,-100.00,NE,48,5.0,9.0,16,-99.99,,,-99.99,,2013-01-20 16:42:00,
2013-01-20 08:52:00,54.0,7.0,-100.00,NE,49,5.0,10.0,15,-99.99,,,-99.99,,2013-01-20 16:52:00,
2013-01-20 09:02:00,55.0,7.0,-100.00,NE,50,6.0,11.0,14,-99.99,,,-99.99,,2013-01-20 17:02:00,
2013-01-20 09:12:00,56.0,7.0,-100.00,NE,46,7.0,11.0,14,-99.99,,,-99.99,,2013-01-20 17:12:00,
2013-01-20 09:22:00,57.0,8.0,-100.00,NE,34,6.0,12.0,14,-99.99,,,-99.99,,2013-01-20 17:22:00,
2013-01-20 09:32:00,57.0,7.0,-100.00,NNE,31,9.0,16.0,13,-99.99,,,-99.99,,2013-01-20 17:32:00,
2013-01-20 09:42:00,57.0,7.0,-100.00,NNE,33,9.0,14.0,13,-99.99,,,-99.99,,2013-01-20 17:42:00,
2013-01-20 09:52:00,58.0,7.0,-100.00,NNE,32,8.0,14.0,13,-99.99,,,-99.99,,2013-01-20 17:52:00,
2013-01-20 10:02:00,58.0,7.0,-100.00,NNE,32,10.0,15.0,13,-99.99,,,-99.99,,2013-01-20 18:02:00,
2013-01-20 10:12:00,59.0,8.0,-100.00,NE,39,8.0,16.0,13,-99.99,,,-99.99,,2013-01-20 18:12:00,
2013-01-20 10:23:00,59.0,8.0,-100.00,NE,35,8.0,14.0,13,-99.99,,,-99.99,,2013-01-20 18:23:00,
2013-01-20 10:33:00,60.0,7.0,-100.00,NNE,31,10.0,16.0,12,-99.99,,,-99.99,,2013-01-20 18:33:00,
2013-01-20 10:42:00,60.0,7.0,-100.00,NNE,31,9.0,14.0,12,-99.99,,,-99.99,,2013-01-20 18:42:00,
2013-01-20 10:52:00,61.0,8.0,-100.00,NNE,24,11.0,16.0,12,-99.99,,,-99.99,,2013-01-20 18:52:00,
2013-01-20 11:02:00,61.0,8.0,-100.00,NNE,32,10.0,18.0,12,-99.99,,,-99.99,,2013-01-20 19:02:00,
2013-01-20 11:12:00,61.0,8.0,-100.00,NNE,25,12.0,17.0,12,-99.99,,,-99.99,,2013-01-20 19:12:00,
2013-01-20 11:22:00,61.0,8.0,-100.00,NNE,30,10.0,16.0,12,-99.99,,,-99.99,,2013-01-20 19:22:00,
2013-01-20 11:33:00,61.0,8.0,-100.00,NNE,24,12.0,17.0,12,-99.99,,,-99.99,,2013-01-20 19:33:00,
2013-01-20 11:42:00,60.0,7.0,-100.00,NNE,26,12.0,16.0,12,-99.99,,,-99.99,,2013-01-20 19:42:00,
2013-01-20 11:52:00,60.0,7.0,-100.00,NNE,28,10.0,16.0,12,-99.99,,,-99.99,,2013-01-20 19:52:00,
2013-01-20 12:02:00,60.0,9.0,-100.00,NNE,30,9.0,18.0,13,-99.99,,,-99.99,,2013-01-20 20:02:00,
2013-01-20 12:12:00,60.0,9.0,-100.00,NNE,32,9.0,15.0,13,-99.99,,,-99.99,,2013-01-20 20:12:00,
2013-01-20 12:22:00,60.0,9.0,-100.00,NNE,30,10.0,16.0,13,-99.99,,,-99.99,,2013-01-20 20:22:00,
2013-01-20 12:32:00,60.0,9.0,-100.00,NE,41,8.0,12.0,13,-99.99,,,-99.99,,2013-01-20 20:32:00,
2013-01-20 12:42:00,61.0,10.0,-100.00,NE,41,9.0,16.0,13,-99.99,,,-99.99,,2013-01-20 20:42:00,
2013-01-20 12:52:00,60.0,7.0,-100.00,NE,35,10.0,17.0,12,-99.99,,,-99.99,,2013-01-20 20:52:00,
2013-01-20 13:03:00,60.0,7.0,-100.00,NE,36,10.0,14.0,12,-99.99,,,-99.99,,2013-01-20 21:03:00,
2013-01-20 13:12:00,60.0,9.0,-100.00,NE,41,9.0,16.0,13,-99.99,,,-99.99,,2013-01-20 21:12:00,
2013-01-20 13:22:00,60.0,7.0,-100.00,NE,37,11.0,17.0,12,-99.99,,,-99.99,,2013-01-20 21:22:00,
2013-01-20 13:33:00,60.0,7.0,-100.00,NNE,32,9.0,15.0,12,-99.99,,,-99.99,,2013-01-20 21:33:00,
2013-01-20 13:42:00,60.0,7.0,-100.00,NNE,33,10.0,15.0,12,-99.99,,,-99.99,,2013-01-20 21:42:00,
2013-01-20 13:52:00,60.0,7.0,-100.00,NNE,32,11.0,17.0,12,-99.99,,,-99.99,,2013-01-20 21:52:00,
2013-01-20 14:02:00,60.0,7.0,-100.00,NE,37,12.0,19.0,12,-99.99,,,-99.99,,2013-01-20 22:02:00,
2013-01-20 14:12:00,60.0,7.0,-100.00,NE,35,11.0,19.0,12,-99.99,,,-99.99,,2013-01-20 22:12:00,
2013-01-20 14:22:00,60.0,7.0,-100.00,NNE,26,12.0,18.0,12,-99.99,,,-99.99,,2013-01-20 22:22:00,
2013-01-20 14:32:00,60.0,7.0,-100.00,NNE,31,11.0,17.0,12,-99.99,,,-99.99,,2013-01-20 22:32:00,
2013-01-20 14:42:00,60.0,7.0,-100.00,NNE,32,11.0,20.0,12,-99.99,,,-99.99,,2013-01-20 22:42:00,
2013-01-20 14:52:00,60.0,7.0,-100.00,NE,36,11.0,18.0,12,-99.99,,,-99.99,,2013-01-20 22:52:00,
2013-01-20 15:02:00,60.0,7.0,-100.00,NE,36,11.0,18.0,12,-99.99,,,-99.99,,2013-01-20 23:02:00,
2013-01-20 15:12:00,60.0,7.0,-100.00,NE,34,11.0,21.0,12,-99.99,,,-99.99,,2013-01-20 23:12:00,
2013-01-20 15:22:00,59.0,6.0,-100.00,NE,35,13.0,22.0,12,-99.99,,,-99.99,,2013-01-20 23:22:00,
2013-01-20 15:33:00,59.0,6.0,-100.00,NNE,30,13.0,20.0,12,-99.99,,,-99.99,,2013-01-20 23:33:00,
2013-01-20 15:42:00,59.0,5.0,-100.00,NE,34,12.0,20.0,11,-99.99,,,-99.99,,2013-01-20 23:42:00,
2013-01-20 15:52:00,59.0,5.0,-100.00,NE,39,10.0,19.0,11,-99.99,,,-99.99,,2013-01-20 23:52:00,
2013-01-20 16:02:00,59.0,5.0,-100.00,NE,43,10.0,18.0,11,-99.99,,,-99.99,,2013-01-21 00:02:00,
2013-01-20 16:12:00,59.0,5.0,-100.00,NE,36,11.0,19.0,11,-99.99,,,-99.99,,2013-01-21 00:12:00,
2013-01-20 16:22:00,59.0,5.0,-100.00,NNE,29,10.0,17.0,11,-99.99,,,-99.99,,2013-01-21 00:22:00,
2013-01-20 16:32:00,58.0,4.0,-100.00,NE,36,11.0,19.0,11,-99.99,,,-99.99,,2013-01-21 00:32:00,
2013-01-20 16:42:00,58.0,4.0,-100.00,NE,36,10.0,18.0,11,-99.99,,,-99.99,,2013-01-21 00:42:00,
2013-01-20 16:53:00,58.0,4.0,-100.00,NNE,33,10.0,15.0,11,-99.99,,,-99.99,,2013-01-21 00:53:00,
2013-01-20 17:02:00,58.0,4.0,-100.00,NNE,33,10.0,19.0,11,-99.99,,,-99.99,,2013-01-21 01:02:00,
2013-01-20 17:12:00,57.0,3.0,-100.00,NE,36,10.0,15.0,11,-99.99,,,-99.99,,2013-01-21 01:12:00,
2013-01-20 17:22:00,57.0,5.0,-100.00,NE,38,9.0,17.0,12,-99.99,,,-99.99,,2013-01-21 01:22:00,
2013-01-20 17:32:00,56.0,4.0,-100.00,NNE,28,7.0,11.0,12,-99.99,,,-99.99,,2013-01-21 01:32:00,
2013-01-20 17:42:00,56.0,4.0,-100.00,NE,46,7.0,12.0,12,-99.99,,,-99.99,,2013-01-21 01:42:00,
2013-01-20 17:52:00,55.0,3.0,-100.00,NNE,21,8.0,13.0,12,-99.99,,,-99.99,,2013-01-21 01:52:00,
2013-01-20 18:02:00,55.0,3.0,-100.00,NNE,21,8.0,13.0,12,-99.99,,,-99.99,,2013-01-21 02:02:00,
2013-01-20 18:12:00,55.0,3.0,-100.00,NNE,26,8.0,13.0,12,-99.99,,,-99.99,,2013-01-21 02:12:00,
2013-01-20 18:22:00,54.0,4.0,-100.00,North,9,9.0,14.0,13,-99.99,,,-99.99,,2013-01-21 02:22:00,
2013-01-20 18:33:00,54.0,4.0,-100.00,NNE,18,10.0,16.0,13,-99.99,,,-99.99,,2013-01-21 02:33:00,
2013-01-20 18:42:00,54.0,4.0,-100.00,NNE,21,10.0,15.0,13,-99.99,,,-99.99,,2013-01-21 02:42:00,
2013-01-20 18:52:00,54.0,4.0,-100.00,NNE,22,11.0,15.0,13,-99.99,,,-99.99,,2013-01-21 02:52:00,
2013-01-20 19:02:00,53.0,4.0,-100.00,NNE,27,10.0,14.0,13,-99.99,,,-99.99,,2013-01-21 03:02:00,
2013-01-20 19:12:00,53.0,4.0,-100.00,NNE,21,10.0,13.0,13,-99.99,,,-99.99,,2013-01-21 03:12:00,
2013-01-20 19:23:00,53.0,4.0,-100.00,NNE,19,9.0,13.0,13,-99.99,,,-99.99,,2013-01-21 03:23:00,
2013-01-20 19:32:00,53.0,4.0,-100.00,NNE,27,9.0,13.0,13,-99.99,,,-99.99,,2013-01-21 03:32:00,
2013-01-20 19:43:00,53.0,4.0,-100.00,NNE,27,9.0,13.0,13,-99.99,,,-99.99,,2013-01-21 03:43:00,
2013-01-20 19:52:00,53.0,4.0,-100.00,NNE,25,9.0,13.0,13,-99.99,,,-99.99,,2013-01-21 03:52:00,
2013-01-20 20:02:00,53.0,4.0,-100.00,NNE,25,9.0,13.0,13,-99.99,,,-99.99,,2013-01-21 04:02:00,
2013-01-20 20:12:00,52.0,4.0,-100.00,NNE,23,9.0,11.0,14,-99.99,,,-99.99,,2013-01-21 04:12:00,
2013-01-20 20:22:00,52.0,4.0,-100.00,NNE,21,9.0,12.0,14,-99.99,,,-99.99,,2013-01-21 04:22:00,
2013-01-20 20:32:00,52.0,4.0,-100.00,NNE,24,8.0,12.0,14,-99.99,,,-99.99,,2013-01-21 04:32:00,
2013-01-20 20:42:00,52.0,4.0,-100.00,NNE,24,8.0,12.0,14,-99.99,,,-99.99,,2013-01-21 04:42:00,
2013-01-20 20:52:00,52.0,3.0,-100.00,NNE,28,8.0,14.0,13,-99.99,,,-99.99,,2013-01-21 04:52:00,
2013-01-20 21:03:00,53.0,4.0,-100.00,NNE,29,8.0,13.0,13,-99.99,,,-99.99,,2013-01-21 05:03:00,
2013-01-20 21:12:00,52.0,3.0,-100.00,NNE,29,8.0,13.0,13,-99.99,,,-99.99,,2013-01-21 05:12:00,
2013-01-20 21:22:00,52.0,4.0,-100.00,NNE,29,8.0,14.0,14,-99.99,,,-99.99,,2013-01-21 05:22:00,
2013-01-20 21:33:00,52.0,4.0,-100.00,NNE,31,8.0,14.0,14,-99.99,,,-99.99,,2013-01-21 05:33:00,
2013-01-20 21:42:00,52.0,4.0,-100.00,NNE,31,8.0,14.0,14,-99.99,,,-99.99,,2013-01-21 05:42:00,
2013-01-20 21:52:00,53.0,4.0,-100.00,NE,34,10.0,16.0,13,-99.99,,,-99.99,,2013-01-21 05:52:00,
2013-01-20 22:02:00,53.0,4.0,-100.00,NNE,28,8.0,12.0,13,-99.99,,,-99.99,,2013-01-21 06:02:00,
2013-01-20 22:12:00,53.0,4.0,-100.00,NNE,24,8.0,15.0,13,-99.99,,,-99.99,,2013-01-21 06:12:00,
2013-01-20 22:22:00,54.0,3.0,-100.00,NNE,16,8.0,14.0,12,-99.99,,,-99.99,,2013-01-21 06:22:00,
2013-01-20 22:32:00,53.0,4.0,-100.00,North,3,8.0,12.0,13,-99.99,,,-99.99,,2013-01-21 06:32:00,
2013-01-20 22:43:00,53.0,2.0,-100.00,NNE,13,8.0,10.0,12,-99.99,,,-99.99,,2013-01-21 06:43:00,
2013-01-20 22:52:00,53.0,2.0,-100.00,North,7,8.0,12.0,12,-99.99,,,-99.99,,2013-01-21 06:52:00,
2013-01-20 23:02:00,53.0,2.0,-100.00,North,7,8.0,12.0,12,-99.99,,,-99.99,,2013-01-21 07:02:00,
2013-01-20 23:12:00,53.0,2.0,-100.00,NNE,12,6.0,9.0,12,-99.99,,,-99.99,,2013-01-21 07:12:00,
2013-01-20 23:22:00,53.0,2.0,-100.00,North,9,6.0,9.0,12,-99.99,,,-99.99,,2013-01-21 07:22:00,
2013-01-20 23:33:00,52.0,3.0,-100.00,North,5,6.0,9.0,13,-99.99,,,-99.99,,2013-01-21 07:33:00,
2013-01-20 23:42:00,52.0,3.0,-100.00,North,5,6.0,9.0,13,-99.99,,,-99.99,,2013-01-21 07:42:00,
2013-01-20 23:52:00,51.0,2.0,-100.00,North,10,7.0,9.0,13,-99.99,,,-99.99,,2013-01-21 07:52:00,